Time;durP1;ratioP1;P1;durP2;ratioP2;P2;SDS_P1;SDS_P2;PMS_P1;PMS_P2;Temp;Humidity;BMP_temperature;BMP_pressure;BME280_temperature;BME280_humidity;BME280_pressure;Samples;Min_cycle;Max_cycle;Signal;HPM_P1;HPM_P2
2021/01/02 10:32:39;;;;;;;119.10;55.13;;;3.50;99.90;;;;;;5118690;27;20433;-71
2021/01/02 10:35:07;;;;;;;116.30;53.75;;;3.70;99.90;;;;;;5115711;27;20054;-71
2021/01/02 10:37:33;;;;;;;104.35;51.03;;;3.80;99.90;;;;;;5116318;27;20020;-72
2021/01/02 10:39:59;;;;;;;108.35;53.25;;;4.00;99.90;;;;;;5123543;28;20024;-73
2021/01/02 10:42:28;;;;;;;116.68;55.63;;;4.10;99.90;;;;;;5112286;28;20076;-72
2021/01/02 10:44:54;;;;;;;121.05;57.88;;;4.20;99.90;;;;;;5119812;27;20518;-71
2021/01/02 10:47:23;;;;;;;126.68;59.60;;;4.30;99.90;;;;;;5080217;27;20028;-71
2021/01/02 10:49:50;;;;;;;118.78;57.40;;;4.40;99.90;;;;;;5075629;28;20090;-71
2021/01/02 10:52:18;;;;;;;96.60;47.33;;;4.40;99.90;;;;;;5076783;28;20174;-74
2021/01/02 10:54:45;;;;;;;93.43;45.58;;;4.50;99.90;;;;;;5084124;28;20048;-75
2021/01/02 10:57:11;;;;;;;93.53;46.03;;;4.60;99.90;;;;;;5075163;28;20025;-75
2021/01/02 10:59:37;;;;;;;89.53;43.15;;;4.70;99.90;;;;;;5074505;28;20561;-76
2021/01/02 11:02:03;;;;;;;75.95;37.45;;;4.70;99.90;;;;;;5055327;28;20111;-76
2021/01/02 11:04:29;;;;;;;78.38;38.92;;;4.60;99.90;;;;;;5054703;28;20113;-74
2021/01/02 11:06:55;;;;;;;71.95;36.05;;;4.70;99.90;;;;;;5059709;28;20498;-75
2021/01/02 11:09:23;;;;;;;74.03;36.83;;;4.80;99.90;;;;;;5063784;28;20511;-76
2021/01/02 11:11:51;;;;;;;71.88;36.33;;;4.90;99.90;;;;;;5062410;28;20043;-76
2021/01/02 11:14:16;;;;;;;72.43;34.55;;;4.80;99.90;;;;;;5054068;28;20373;-74
2021/01/02 11:16:44;;;;;;;75.60;36.08;;;5.00;99.90;;;;;;5055490;28;20035;-74
2021/01/02 11:19:23;;;;;;;71.47;34.97;;;5.00;99.90;;;;;;5056824;28;20036;-75
2021/01/02 11:21:51;;;;;;;71.03;35.85;;;5.10;99.90;;;;;;5058769;28;20551;-76
2021/01/02 11:24:21;;;;;;;71.07;36.05;;;5.20;99.90;;;;;;5059968;28;20591;-74
2021/01/02 11:26:49;;;;;;;66.20;32.80;;;5.30;99.90;;;;;;5051596;28;20057;-74
2021/01/02 11:29:18;;;;;;;68.93;31.83;;;5.30;99.90;;;;;;5049714;28;20025;-74
2021/01/02 11:31:44;;;;;;;63.53;31.65;;;5.40;99.90;;;;;;5048124;28;20489;-75
2021/01/02 11:34:10;;;;;;;60.47;30.42;;;5.50;99.90;;;;;;5053283;28;20062;-75
2021/01/02 11:36:36;;;;;;;64.45;31.58;;;5.60;99.90;;;;;;5056258;28;20048;-75
2021/01/02 11:39:04;;;;;;;62.47;31.23;;;5.60;99.90;;;;;;5054881;28;20111;-75
2021/01/02 11:41:33;;;;;;;59.83;30.67;;;5.70;99.90;;;;;;5052601;28;20040;-76
2021/01/02 11:44:00;;;;;;;63.97;29.45;;;5.70;99.90;;;;;;5042094;28;20025;-76
2021/01/02 11:46:31;;;;;;;53.80;27.83;;;5.70;99.90;;;;;;5046074;28;20032;-75
2021/01/02 11:48:56;;;;;;;64.37;30.10;;;5.80;99.90;;;;;;5040214;28;20052;-75
2021/01/02 11:51:24;;;;;;;56.05;29.45;;;5.80;99.90;;;;;;5036628;28;20078;-76
2021/01/02 11:53:49;;;;;;;64.68;31.23;;;5.90;99.90;;;;;;5040102;28;20484;-76
2021/01/02 11:56:19;;;;;;;63.15;32.67;;;5.90;99.90;;;;;;5039810;28;20140;-74
2021/01/02 11:58:44;;;;;;;70.40;31.67;;;5.90;99.90;;;;;;5041729;28;20079;-75
2021/01/02 12:01:10;;;;;;;61.80;30.13;;;6.00;99.90;;;;;;5044902;28;20519;-75
2021/01/02 12:03:35;;;;;;;60.45;31.23;;;6.00;99.90;;;;;;5038689;28;20037;-72
2021/01/02 12:06:01;;;;;;;48.03;24.88;;;5.90;99.90;;;;;;5040717;28;20021;-71
2021/01/02 12:08:28;;;;;;;55.03;27.50;;;5.90;99.90;;;;;;5041361;28;20033;-74
2021/01/02 12:10:54;;;;;;;53.17;28.75;;;5.90;99.90;;;;;;5041722;28;20065;-72
2021/01/02 12:13:19;;;;;;;55.50;27.70;;;5.90;99.90;;;;;;5040793;28;20071;-72
2021/01/02 12:15:49;;;;;;;51.88;26.73;;;5.90;99.90;;;;;;5040478;28;20043;-72
2021/01/02 12:18:17;;;;;;;56.15;27.67;;;5.90;99.90;;;;;;5040178;28;20037;-72
2021/01/02 12:20:44;;;;;;;55.83;28.83;;;5.90;99.90;;;;;;5041269;28;20060;-73
2021/01/02 12:23:10;;;;;;;59.75;30.60;;;5.90;99.90;;;;;;5044483;28;20033;-72
2021/01/02 12:25:35;;;;;;;57.42;28.92;;;6.00;99.90;;;;;;5040284;28;20056;-74
2021/01/02 12:28:01;;;;;;;59.70;30.33;;;5.90;99.90;;;;;;5041597;28;20074;-73
2021/01/02 12:30:28;;;;;;;59.67;28.92;;;6.00;99.90;;;;;;5042080;28;20048;-73
2021/01/02 12:32:56;;;;;;;59.28;29.13;;;6.00;99.90;;;;;;5042498;28;20163;-71
2021/01/02 12:35:22;;;;;;;55.05;27.80;;;6.00;99.90;;;;;;5040321;28;20097;-72
2021/01/02 12:37:47;;;;;;;58.83;27.88;;;6.00;99.90;;;;;;5037390;28;20040;-72
2021/01/02 12:40:13;;;;;;;56.08;27.48;;;6.00;99.90;;;;;;5041689;28;20474;-72
2021/01/02 12:42:39;;;;;;;53.67;27.63;;;6.00;99.90;;;;;;5039797;28;20048;-73
2021/01/02 12:45:08;;;;;;;45.30;24.65;;;6.00;99.90;;;;;;5055239;28;20037;-72
2021/01/02 12:47:33;;;;;;;51.75;26.60;;;6.00;99.90;;;;;;5039915;28;20044;-73
2021/01/02 12:49:59;;;;;;;51.35;26.67;;;5.90;99.90;;;;;;5040700;28;20025;-73
2021/01/02 12:52:29;;;;;;;50.45;26.75;;;5.90;99.90;;;;;;5043802;28;20049;-72
2021/01/02 12:54:56;;;;;;;52.65;25.90;;;5.90;99.90;;;;;;5038720;28;20575;-74
2021/01/02 12:57:22;;;;;;;49.05;25.98;;;5.90;99.90;;;;;;5036276;28;20033;-73
2021/01/02 12:59:51;;;;;;;51.00;26.45;;;6.00;99.90;;;;;;5035943;28;20041;-73
2021/01/02 13:02:17;;;;;;;50.47;27.20;;;6.00;99.90;;;;;;5038061;28;20102;-75
2021/01/02 13:04:42;;;;;;;52.10;27.52;;;5.90;99.90;;;;;;5051222;28;20022;-76
2021/01/02 13:07:08;;;;;;;55.75;28.13;;;5.90;99.90;;;;;;5039961;28;20064;-76
2021/01/02 13:09:37;;;;;;;49.90;26.42;;;5.90;99.90;;;;;;5040662;28;20419;-76
2021/01/02 13:12:04;;;;;;;55.17;28.50;;;5.80;99.90;;;;;;5036338;28;20040;-74
2021/01/02 13:14:30;;;;;;;55.65;29.13;;;5.70;99.90;;;;;;5037561;28;20037;-74
2021/01/02 13:17:07;;;;;;;56.75;29.02;;;5.80;99.90;;;;;;5036918;28;20034;-75
2021/01/02 13:19:34;;;;;;;60.00;28.27;;;5.70;99.90;;;;;;5037859;28;20056;-76
2021/01/02 13:22:06;;;;;;;57.55;28.95;;;5.70;99.90;;;;;;5041898;28;20025;-76
2021/01/02 13:24:32;;;;;;;55.67;28.73;;;5.70;99.90;;;;;;5036596;28;20048;-76
2021/01/02 13:27:01;;;;;;;58.90;28.70;;;5.80;99.90;;;;;;5038204;28;20028;-76
2021/01/02 13:29:32;;;;;;;52.25;28.35;;;5.90;99.90;;;;;;5035825;28;20049;-75
2021/01/02 13:31:59;;;;;;;;;;;6.00;99.90;;;;;;5051079;28;20049;-76
2021/01/02 13:34:25;;;;;;;52.13;25.67;;;6.20;99.90;;;;;;5059764;28;19965;-75
2021/01/02 13:36:52;;;;;;;51.60;27.40;;;6.20;99.90;;;;;;5056359;28;20020;-75
2021/01/02 13:39:21;;;;;;;48.65;27.17;;;6.30;99.90;;;;;;5062261;28;20036;-75
2021/01/02 13:41:47;;;;;;;47.35;26.75;;;6.30;99.90;;;;;;5061249;28;20761;-76
2021/01/02 13:44:14;;;;;;;52.33;28.40;;;6.30;99.90;;;;;;5063267;28;20121;-76
2021/01/02 13:46:39;;;;;;;49.72;27.48;;;6.30;99.90;;;;;;5054661;28;20147;-74
2021/01/02 13:49:05;;;;;;;53.60;28.13;;;6.30;99.90;;;;;;5057064;28;20495;-75
2021/01/02 13:51:31;;;;;;;51.70;27.73;;;6.30;99.90;;;;;;5058919;28;20271;-76
2021/01/02 13:53:57;;;;;;;53.45;27.15;;;6.30;99.90;;;;;;5060050;28;20059;-76
2021/01/02 13:56:24;;;;;;;54.03;27.58;;;6.30;99.90;;;;;;5058706;28;20017;-76
2021/01/02 13:58:49;;;;;;;51.83;27.90;;;6.30;99.90;;;;;;5057373;28;20028;-76
2021/01/02 14:01:19;;;;;;;49.40;26.42;;;6.20;99.90;;;;;;5053921;28;20039;-75
2021/01/02 14:03:46;;;;;;;50.80;26.92;;;6.10;99.90;;;;;;5060166;28;20036;-75
2021/01/02 14:06:17;;;;;;;53.80;27.42;;;6.10;99.90;;;;;;5058601;28;20024;-75
2021/01/02 14:08:44;;;;;;;54.30;27.40;;;6.10;99.90;;;;;;5059259;28;20081;-76
2021/01/02 14:11:19;;;;;;;54.33;27.48;;;6.10;99.90;;;;;;5060367;28;20068;-75
2021/01/02 14:13:45;;;;;;;50.05;26.90;;;6.10;99.90;;;;;;5060495;28;20028;-75
2021/01/02 14:16:11;;;;;;;50.42;27.40;;;6.10;99.90;;;;;;5057036;28;20029;-73
2021/01/02 14:18:36;;;;;;;53.60;27.50;;;6.00;99.90;;;;;;5057386;28;20769;-73
2021/01/02 14:21:05;;;;;;;55.60;28.70;;;6.00;99.90;;;;;;5055457;28;20044;-73
2021/01/02 14:23:31;;;;;;;51.75;28.17;;;6.00;99.90;;;;;;5053848;28;20032;-73
2021/01/02 14:25:56;;;;;;;52.03;28.98;;;5.90;99.90;;;;;;5056974;28;20107;-73
2021/01/02 14:28:22;;;;;;;53.47;29.02;;;5.90;99.90;;;;;;5059051;28;20053;-74
2021/01/02 14:30:48;;;;;;;58.60;29.95;;;5.80;99.90;;;;;;5060831;28;20094;-75
2021/01/02 14:33:14;;;;;;;56.92;29.98;;;5.80;99.90;;;;;;5058213;28;20395;-76
2021/01/02 14:35:39;;;;;;;55.83;30.42;;;5.80;99.90;;;;;;5060159;28;20091;-74
2021/01/02 14:38:06;;;;;;;58.90;32.45;;;5.90;99.90;;;;;;5058450;28;20100;-76
2021/01/02 14:40:32;;;;;;;62.42;31.92;;;5.80;99.90;;;;;;5060299;28;20064;-75
2021/01/02 14:42:57;;;;;;;63.22;32.15;;;5.80;99.90;;;;;;5058679;28;20433;-75
2021/01/02 14:45:23;;;;;;;67.82;33.08;;;5.80;99.90;;;;;;5059167;28;20111;-75
2021/01/02 14:47:49;;;;;;;61.97;30.85;;;5.70;99.90;;;;;;5058661;28;20113;-74
2021/01/02 14:50:17;;;;;;;60.85;32.67;;;5.80;99.90;;;;;;5059160;28;20473;-77
2021/01/02 14:52:43;;;;;;;59.92;30.90;;;5.80;99.90;;;;;;5053191;28;20087;-75
2021/01/02 14:55:09;;;;;;;55.45;30.42;;;5.90;99.90;;;;;;5053187;28;20086;-74
2021/01/02 14:57:35;;;;;;;61.35;31.98;;;6.00;99.90;;;;;;5052285;28;20024;-75
2021/01/02 15:00:01;;;;;;;56.63;33.10;;;6.00;99.90;;;;;;5054805;28;20029;-74
2021/01/02 15:02:27;;;;;;;59.17;32.25;;;6.00;99.90;;;;;;5058364;28;20036;-75
2021/01/02 15:04:52;;;;;;;61.67;33.40;;;6.10;99.90;;;;;;5055838;28;20028;-75
2021/01/02 15:07:18;;;;;;;63.65;33.28;;;6.10;99.90;;;;;;5060622;28;21995;-74
2021/01/02 15:09:44;;;;;;;63.13;32.53;;;6.10;99.90;;;;;;5074684;28;20461;-73
2021/01/02 15:12:10;;;;;;;65.65;33.45;;;6.20;99.90;;;;;;5059426;28;20410;-73
2021/01/02 15:14:39;;;;;;;62.13;31.88;;;6.10;99.90;;;;;;5055372;28;20369;-75
2021/01/02 15:17:06;;;;;;;54.63;30.95;;;6.10;99.90;;;;;;5058338;28;20511;-74
2021/01/02 15:19:31;;;;;;;57.03;30.88;;;6.10;99.90;;;;;;5059508;28;20064;-74
2021/01/02 15:21:57;;;;;;;61.65;31.38;;;6.10;99.90;;;;;;5063923;28;20071;-74
2021/01/02 15:24:23;;;;;;;57.42;32.50;;;6.10;99.90;;;;;;5061281;28;20072;-75
2021/01/02 15:26:48;;;;;;;57.47;31.55;;;6.10;99.90;;;;;;5059101;28;20170;-73
2021/01/02 15:29:14;;;;;;;59.70;32.72;;;6.10;99.90;;;;;;5061412;28;21390;-75
2021/01/02 15:31:45;;;;;;;61.70;32.88;;;6.10;99.90;;;;;;5058711;28;20132;-73
2021/01/02 15:34:14;;;;;;;65.10;33.13;;;6.00;99.90;;;;;;5062514;28;20032;-74
2021/01/02 15:36:41;;;;;;;59.20;32.25;;;6.00;99.90;;;;;;5054371;28;20111;-74
2021/01/02 15:39:22;;;;;;;56.95;32.97;;;6.00;99.90;;;;;;5061168;28;20090;-74
2021/01/02 15:41:49;;;;;;;64.40;32.00;;;6.00;99.90;;;;;;5058314;28;20048;-74
2021/01/02 15:44:17;;;;;;;60.22;34.42;;;6.10;99.90;;;;;;5057557;28;20102;-73
